Terminal Aerodrome Forecast
Issued by NWS

Home | Current Version | Previous Version | Text Only | Print | Product List | Glossary On
Versions: 1 2 3 4 5 6 7 8 9 10 11 12 13 14 15 16 17 18 19 20 21 22 23 24 25 26 27 28 29 30 31 32 33 34 35 36
708
FTUS41 KGYX 071626 AAB
TAFLEB
TAF AMD
KLEB 071626Z 0716/0812 00000KT 3SM -SHSN BR OVC010
     FM071800 18004KT P6SM -SHSN OVC025
     FM072100 22004KT P6SM BKN040
     FM080300 27005KT P6SM SCT040 BKN100=

USA.gov is the U.S. government's official web portal to all federal, state and local government web resources and services.